Terminal Aerodrome Forecast
Issued by NWS

Home | Current Version | Previous Version | Text Only | Print | Product List | Glossary On
Versions: 1 2 3 4 5 6 7 8 9 10 11 12 13 14 15 16 17 18 19 20 21 22 23 24 25 26 27
000
FTUS45 KBOU 260528
TAFBJC
TAF
KBJC 260528Z 2606/2706 10005KT P6SM BKN022 BKN050
     FM260800 16004KT P6SM SCT022 BKN050 BKN100
     FM261000 18004KT P6SM VCFG BKN020 BKN040
     FM261600 20005KT P6SM FEW025
     FM262100 09006KT P6SM FEW050
     FM270400 VRB05KT P6SM BKN050=

USA.gov is the U.S. government's official web portal to all federal, state and local government web resources and services.